Bucuresti — BUCURE — position and weather

sailwx.info

Track history (hours):
 
Tides and Currents Weather Stations Pressure Air Temp Water Temp Dewpoint Dewpoint Depression Visibility Wind Speed Wind Dir Waves Ship Positions

Bucuresti

Last reported at 2017-Oct-18 18:30 UTC. Time now 2017-Oct-18 18:51 UTC.
Position N 44°20' E 028°41'.

Length 26 m; draft 3.2 m.

Type: Tug. MMSI: 264900303.

Date/timePositionNaut miles runAvg speedWind from/ knotsBaromVisibWave heightAir tempDewpointWater temp
2017-Oct-18 18:30N 44°20' E 028°41'0 0.0
2017-Oct-18 18:00N 44°20' E 028°41'0 0.0
2017-Oct-18 17:30N 44°20' E 028°41'0 0.0
2017-Oct-18 17:00N 44°20' E 028°41'0 0.0
2017-Oct-18 16:30N 44°20' E 028°41'0 0.0
2017-Oct-18 16:00N 44°20' E 028°41'0 0.0
2017-Oct-18 15:30N 44°20' E 028°41'0 0.0
2017-Oct-18 15:00N 44°20' E 028°41'0 0.1
2017-Oct-18 14:00N 44°20' E 028°41'5 8.3
2017-Oct-18 13:28N 44°18' E 028°47'0 0.1
2017-Oct-18 12:58N 44°18' E 028°47'0 0.2
2017-Oct-18 12:29N 44°18' E 028°47'0 0.2
2017-Oct-18 12:01N 44°18' E 028°47'0 0.2
2017-Oct-18 11:29N 44°18' E 028°47'1 2.6
2017-Oct-18 11:00N 44°18' E 028°45'3 6.3
2017-Oct-18 10:29N 44°20' E 028°41'3 7.1
2017-Oct-18 10:01N 44°18' E 028°45'1 2.5
2017-Oct-18 09:30N 44°18' E 028°47'0 0.0
2017-Oct-18 09:00N 44°18' E 028°47'0 0.0
2017-Oct-18 08:30N 44°18' E 028°47'0 0.0
2017-Oct-18 08:00N 44°18' E 028°47'0 0.0
2017-Oct-18 07:30N 44°18' E 028°47'3 5.9
2017-Oct-18 07:00N 44°19' E 028°43'2 3.7
2017-Oct-18 06:28N 44°20' E 028°41'0 0.0
2017-Oct-18 05:58N 44°20' E 028°41'0 0.0
2017-Oct-18 05:28N 44°20' E 028°41'0 0.0
2017-Oct-18 04:58N 44°20' E 028°41'0 0.0
2017-Oct-18 04:28N 44°20' E 028°41'0 0.0
2017-Oct-18 03:58N 44°20' E 028°41'0 0.0
2017-Oct-18 03:28N 44°20' E 028°41'0 0.0
2017-Oct-18 02:58N 44°20' E 028°41'0 0.0
2017-Oct-18 02:28N 44°20' E 028°41'0 0.0
2017-Oct-18 01:58N 44°20' E 028°41'0 0.0
2017-Oct-18 01:28N 44°20' E 028°41'0 0.0
2017-Oct-18 00:58N 44°20' E 028°41'0 0.0
2017-Oct-18 00:28N 44°20' E 028°41'0 0.0
2017-Oct-17 23:58N 44°20' E 028°41'0 0.0
2017-Oct-17 23:28N 44°20' E 028°41'0 0.0
2017-Oct-17 22:58N 44°20' E 028°41'0 0.0
2017-Oct-17 22:28N 44°20' E 028°41'0 0.0
2017-Oct-17 21:58N 44°20' E 028°41'0 0.0
2017-Oct-17 21:28N 44°20' E 028°41'0 0.0
2017-Oct-17 20:58N 44°20' E 028°41'0 0.0
2017-Oct-17 20:28N 44°20' E 028°41'0 0.0
2017-Oct-17 19:58N 44°20' E 028°41'0 0.0
2017-Oct-17 19:28N 44°20' E 028°41'0 0.0
2017-Oct-17 18:58N 44°20' E 028°41'0 0.0
2017-Oct-17 18:28N 44°20' E 028°41'0 0.0
2017-Oct-17 17:58N 44°20' E 028°41'0 0.0
2017-Oct-17 17:28N 44°20' E 028°41'0 0.0
2017-Oct-17 16:58N 44°20' E 028°41'0 0.0
2017-Oct-17 16:28N 44°20' E 028°41'0 0.0
2017-Oct-17 15:58N 44°20' E 028°41'0 0.0
2017-Oct-17 15:28N 44°20' E 028°41'0 0.0
2017-Oct-17 14:58N 44°20' E 028°41'1 2.9
2017-Oct-17 14:30N 44°19' E 028°42'4 7.0
2017-Oct-17 14:00N 44°18' E 028°47'0 0.4
2017-Oct-17 13:29N 44°18' E 028°47'0 0.0
2017-Oct-17 12:59N 44°18' E 028°47'0 0.0
2017-Oct-17 12:29N 44°18' E 028°47'0 0.0
2017-Oct-17 11:59N 44°18' E 028°47'0 0.0
2017-Oct-17 11:29N 44°18' E 028°47'0 0.0
2017-Oct-17 10:59N 44°18' E 028°47'0 0.0
2017-Oct-17 10:29N 44°18' E 028°47'0 0.0
2017-Oct-17 09:59N 44°18' E 028°47'0 0.2
2017-Oct-17 09:30N 44°18' E 028°47'0 0.3
2017-Oct-17 09:00N 44°18' E 028°47'0 0.0
2017-Oct-17 08:30N 44°18' E 028°47'0 0.0
2017-Oct-17 08:00N 44°18' E 028°47'3 6.9
2017-Oct-17 07:30N 44°19' E 028°42'2 3.1
2017-Oct-17 06:59N 44°20' E 028°41'0 0.0
2017-Oct-17 06:29N 44°20' E 028°41'0 0.0
2017-Oct-17 05:59N 44°20' E 028°41'0 0.0
2017-Oct-17 05:29N 44°20' E 028°41'0 0.0
2017-Oct-17 04:59N 44°20' E 028°41'0 0.0
2017-Oct-17 04:29N 44°20' E 028°41'0 0.0
2017-Oct-17 03:59N 44°20' E 028°41'0 0.0
2017-Oct-17 03:14N 44°20' E 028°41'0 0.0
2017-Oct-17 02:59N 44°20' E 028°41'0 0.0
2017-Oct-17 02:29N 44°20' E 028°41'0 0.0
2017-Oct-17 01:59N 44°20' E 028°41'0 0.0
2017-Oct-17 01:29N 44°20' E 028°41'0 0.0
2017-Oct-17 00:59N 44°20' E 028°41'0 0.0
2017-Oct-17 00:29N 44°20' E 028°41'0 0.0
2017-Oct-16 23:59N 44°20' E 028°41'0 0.0
2017-Oct-16 23:29N 44°20' E 028°41'0 0.0
2017-Oct-16 22:56N 44°20' E 028°41'0 0.0
2017-Oct-16 22:29N 44°20' E 028°41'0 0.0
2017-Oct-16 21:56N 44°20' E 028°41'0 0.0
2017-Oct-16 21:29N 44°20' E 028°41'0 0.0
2017-Oct-16 20:59N 44°20' E 028°41'0 0.0
2017-Oct-16 20:29N 44°20' E 028°41'0 0.0
2017-Oct-16 19:59N 44°20' E 028°41'0 0.0
2017-Oct-16 19:29N 44°20' E 028°41'0 0.0
2017-Oct-16 18:59N 44°20' E 028°41'0 0.0
2017-Oct-16 18:29N 44°20' E 028°41'0 0.0
2017-Oct-16 17:59N 44°20' E 028°41'0 0.0
2017-Oct-16 17:29N 44°20' E 028°41'0 0.0
2017-Oct-16 16:59N 44°20' E 028°41'0 0.0
2017-Oct-16 16:29N 44°20' E 028°41'0 0.0
2017-Oct-16 15:59N 44°20' E 028°41'0 0.0
2017-Oct-16 15:29N 44°20' E 028°41'0 0.0
2017-Oct-16 14:59N 44°20' E 028°41'0 0.0
2017-Oct-16 14:29N 44°20' E 028°41'0 0.3
2017-Oct-16 13:28N 44°20' E 028°41'1 2.6
2017-Oct-16 13:00N 44°19' E 028°42'1 2.2
2017-Oct-16 12:28N 44°20' E 028°41'0 0.0
2017-Oct-16 11:58N 44°20' E 028°41'0 0.0
2017-Oct-16 11:28N 44°20' E 028°41'0 0.0
2017-Oct-16 10:58N 44°20' E 028°41'0 0.0
2017-Oct-16 10:28N 44°20' E 028°41'0 0.0
2017-Oct-16 09:58N 44°20' E 028°41'0 0.0
2017-Oct-16 09:28N 44°20' E 028°41'0 0.0
2017-Oct-16 08:58N 44°20' E 028°41'0 0.0
2017-Oct-16 08:28N 44°20' E 028°41'0 0.0
2017-Oct-16 07:58N 44°20' E 028°41'0 0.0
2017-Oct-16 07:28N 44°20' E 028°41'0 0.0
2017-Oct-16 06:58N 44°20' E 028°41'0 0.0
2017-Oct-16 06:28N 44°20' E 028°41'0 0.0
2017-Oct-16 05:58N 44°20' E 028°41'0 0.0
2017-Oct-16 05:28N 44°20' E 028°41'0 0.0
2017-Oct-16 04:58N 44°20' E 028°41'0 0.0
2017-Oct-16 04:28N 44°20' E 028°41'0 0.0
2017-Oct-16 03:58N 44°20' E 028°41'0 0.0
2017-Oct-16 03:28N 44°20' E 028°41'0 0.0
2017-Oct-16 02:58N 44°20' E 028°41'0 0.0
2017-Oct-16 02:28N 44°20' E 028°41'0 0.0
2017-Oct-16 01:58N 44°20' E 028°41'0 0.0
2017-Oct-16 01:28N 44°20' E 028°41'0 0.0
2017-Oct-16 00:58N 44°20' E 028°41'0 0.0
2017-Oct-16 00:28N 44°20' E 028°41'0 0.0
2017-Oct-15 23:58N 44°20' E 028°41'0 0.0
2017-Oct-15 23:28N 44°20' E 028°41'0 0.0
2017-Oct-15 22:58N 44°20' E 028°41'0 0.0
2017-Oct-15 22:28N 44°20' E 028°41'0 0.0
2017-Oct-15 21:58N 44°20' E 028°41'0 0.0
2017-Oct-15 21:28N 44°20' E 028°41'0 0.0
2017-Oct-15 20:55N 44°20' E 028°41'0 0.0
2017-Oct-15 20:28N 44°20' E 028°41'0 0.0
2017-Oct-15 19:58N 44°20' E 028°41'0 0.0
2017-Oct-15 19:28N 44°20' E 028°41'0 0.0
2017-Oct-15 18:58N 44°20' E 028°41'0 0.0
2017-Oct-15 18:28N 44°20' E 028°41'0 0.0
2017-Oct-15 17:58N 44°20' E 028°41'0 0.0
2017-Oct-15 17:28N 44°20' E 028°41'0 0.0
2017-Oct-15 16:58N 44°20' E 028°41'0 0.0
2017-Oct-15 16:28N 44°20' E 028°41'0 0.0
2017-Oct-15 15:58N 44°20' E 028°41'0 0.0
2017-Oct-15 15:28N 44°20' E 028°41'0 0.0
2017-Oct-15 14:58N 44°20' E 028°41'0 0.0
2017-Oct-15 13:58N 44°20' E 028°41'0 1.1
2017-Oct-15 13:30N 44°20' E 028°41'4 8.7
2017-Oct-15 13:00N 44°18' E 028°47'0 1.0
2017-Oct-15 12:30N 44°18' E 028°46'4 8.4
2017-Oct-15 12:00N 44°20' E 028°41'0 0.0
2017-Oct-15 11:30N 44°20' E 028°41'0 0.0
2017-Oct-15 11:00N 44°20' E 028°41'0 0.0
2017-Oct-15 10:30N 44°20' E 028°41'0 0.0
2017-Oct-15 09:57N 44°20' E 028°41'0 0.0
2017-Oct-15 09:30N 44°20' E 028°41'0 0.0
2017-Oct-15 09:00N 44°20' E 028°41'0 0.0
2017-Oct-15 08:30N 44°20' E 028°41'0 0.0
2017-Oct-15 08:00N 44°20' E 028°41'2 4.4
2017-Oct-15 07:31N 44°18' E 028°43'3 5.1
2017-Oct-15 06:59N 44°18' E 028°46'0 0.1
2017-Oct-15 06:29N 44°18' E 028°46'0 0.3
2017-Oct-15 05:55N 44°18' E 028°47'2 4.8
2017-Oct-15 05:30N 44°18' E 028°44'3 5.6
2017-Oct-15 05:00N 44°20' E 028°41'0 0.0
2017-Oct-15 04:30N 44°20' E 028°41'0 0.0
2017-Oct-15 04:00N 44°20' E 028°41'0 0.0
2017-Oct-15 03:30N 44°20' E 028°41'0 0.0
2017-Oct-15 03:00N 44°20' E 028°41'0 0.0
2017-Oct-15 02:30N 44°20' E 028°41'0 0.0
2017-Oct-15 02:00N 44°20' E 028°41'0 0.0
2017-Oct-15 01:30N 44°20' E 028°41'0 0.0
2017-Oct-15 01:00N 44°20' E 028°41'0 0.0
2017-Oct-15 00:30N 44°20' E 028°41'0 0.0
2017-Oct-15 00:00N 44°20' E 028°41'0 0.0
2017-Oct-14 23:30N 44°20' E 028°41'0 0.0
2017-Oct-14 23:00N 44°20' E 028°41'0 0.0
2017-Oct-14 22:30N 44°20' E 028°41'0 0.0
2017-Oct-14 22:00N 44°20' E 028°41'0 0.0
2017-Oct-14 21:30N 44°20' E 028°41'0 0.0
2017-Oct-14 21:00N 44°20' E 028°41'0 0.0
2017-Oct-14 20:30N 44°20' E 028°41'0 0.0
2017-Oct-14 20:00N 44°20' E 028°41'0 0.0
2017-Oct-14 19:30N 44°20' E 028°41'0 0.0
2017-Oct-14 19:00N 44°20' E 028°41'0 0.0
2017-Oct-14 18:30N 44°20' E 028°41'0 0.0
2017-Oct-14 18:00N 44°20' E 028°41'0 0.0
2017-Oct-14 17:30N 44°20' E 028°41'0 0.0
2017-Oct-14 17:00N 44°20' E 028°41'0 0.0
2017-Oct-14 16:30N 44°20' E 028°41'0 0.0
2017-Oct-14 16:00N 44°20' E 028°41'0 0.0
2017-Oct-14 15:30N 44°20' E 028°41'0 0.0
2017-Oct-14 15:00N 44°20' E 028°41'0 0.0
2017-Oct-14 14:30N 44°20' E 028°41'0 0.0
2017-Oct-14 13:57N 44°20' E 028°41'0 0.0
2017-Oct-14 13:30N 44°20' E 028°41'0 0.0
2017-Oct-14 13:00N 44°20' E 028°41'0 0.0
2017-Oct-14 12:30N 44°20' E 028°41'0 0.0
2017-Oct-14 12:00N 44°20' E 028°41'0 0.0
2017-Oct-14 11:30N 44°20' E 028°41'1 2.4
2017-Oct-14 11:00N 44°19' E 028°42'4 6.8
2017-Oct-14 10:27N 44°18' E 028°47'4 8.2
2017-Oct-14 10:00N 44°19' E 028°42'1 2.8
2017-Oct-14 09:30N 44°20' E 028°41'0 0.8
2017-Oct-14 09:00N 44°20' E 028°41'0 0.7
2017-Oct-14 08:30N 44°20' E 028°41'1 1.7
2017-Oct-14 08:00N 44°19' E 028°41'0 0.5
2017-Oct-14 07:30N 44°20' E 028°41'1 1.3
2017-Oct-14 06:59N 44°20' E 028°41'0 0.0
2017-Oct-14 06:29N 44°20' E 028°41'0 0.0
2017-Oct-14 05:59N 44°20' E 028°41'0 0.0
2017-Oct-14 05:29N 44°20' E 028°41'0 0.0
2017-Oct-14 04:59N 44°20' E 028°41'0 0.0
2017-Oct-14 04:29N 44°20' E 028°41'0 0.0
2017-Oct-14 03:59N 44°20' E 028°41'0 0.0
2017-Oct-14 03:29N 44°20' E 028°41'0 0.0
2017-Oct-14 02:59N 44°20' E 028°41'0 0.0
2017-Oct-14 02:29N 44°20' E 028°41'0 0.0
2017-Oct-14 01:59N 44°20' E 028°41'0 0.0
2017-Oct-14 01:29N 44°20' E 028°41'0 0.0
2017-Oct-14 00:59N 44°20' E 028°41'0 0.0
2017-Oct-14 00:29N 44°20' E 028°41'0 0.0
2017-Oct-13 23:59N 44°20' E 028°41'0 0.0
2017-Oct-13 23:29N 44°20' E 028°41'0 0.0
2017-Oct-13 22:59N 44°20' E 028°41'0 0.0
2017-Oct-13 22:29N 44°20' E 028°41'0 0.0
2017-Oct-13 21:59N 44°20' E 028°41'0 0.0
2017-Oct-13 21:29N 44°20' E 028°41'0 0.0
2017-Oct-13 20:59N 44°20' E 028°41'0 0.0
2017-Oct-13 20:29N 44°20' E 028°41'0 0.0
2017-Oct-13 19:59N 44°20' E 028°41'0 0.0
2017-Oct-13 19:26N 44°20' E 028°41'0 0.0
2017-Oct-13 18:59N 44°20' E 028°41'0 0.0
2017-Oct-13 18:29N 44°20' E 028°41'0 0.0
2017-Oct-13 17:59N 44°20' E 028°41'0 0.0
2017-Oct-13 17:29N 44°20' E 028°41'0 0.0
2017-Oct-13 16:59N 44°20' E 028°41'0 0.0
2017-Oct-13 16:29N 44°20' E 028°41'0 0.0
2017-Oct-13 15:59N 44°20' E 028°41'0 0.0
2017-Oct-13 15:29N 44°20' E 028°41'0 0.0
2017-Oct-13 14:59N 44°20' E 028°41'0 0.0
2017-Oct-13 14:29N 44°20' E 028°41'0 0.0
2017-Oct-13 13:59N 44°20' E 028°41'0 0.0
2017-Oct-13 13:29N 44°20' E 028°41'3 6.4
2017-Oct-13 13:01N 44°18' E 028°44'0 0.6
2017-Oct-13 12:30N 44°18' E 028°45'3 6.6
2017-Oct-13 12:00N 44°20' E 028°41'0 0.0
2017-Oct-13 11:30N 44°20' E 028°41'0 0.0
2017-Oct-13 11:00N 44°20' E 028°41'0 0.0
2017-Oct-13 10:30N 44°20' E 028°41'0 0.0
2017-Oct-13 10:00N 44°20' E 028°41'0 0.6
2017-Oct-13 09:28N 44°21' E 028°41'0 0.0
2017-Oct-13 08:58N 44°21' E 028°41'0 0.7
2017-Oct-13 08:30N 44°20' E 028°41'0 0.0
2017-Oct-13 08:00N 44°20' E 028°41'5 9.1
2017-Oct-13 07:30N 44°18' E 028°47'0 0.1
2017-Oct-13 07:01N 44°18' E 028°46'0 0.1
2017-Oct-13 06:31N 44°18' E 028°47'0 0.4
2017-Oct-13 05:59N 44°18' E 028°47'3 7.3
2017-Oct-13 05:30N 44°19' E 028°42'2 3.1
2017-Oct-13 05:00N 44°20' E 028°41'0 0.0
2017-Oct-13 04:30N 44°20' E 028°41'0 0.0
2017-Oct-13 04:00N 44°20' E 028°41'0 0.0
2017-Oct-13 03:30N 44°20' E 028°41'0 0.0
2017-Oct-13 03:00N 44°20' E 028°41'0 0.0
2017-Oct-13 02:30N 44°20' E 028°41'0 0.0
2017-Oct-13 02:00N 44°20' E 028°41'0 0.0
2017-Oct-13 01:30N 44°20' E 028°41'0 0.0
2017-Oct-13 01:00N 44°20' E 028°41'0 0.0
2017-Oct-13 00:30N 44°20' E 028°41'0 0.0
2017-Oct-13 00:00N 44°20' E 028°41'0 0.0
2017-Oct-12 23:30N 44°20' E 028°41'0 0.0
2017-Oct-12 23:00N 44°20' E 028°41'0 0.0
2017-Oct-12 22:30N 44°20' E 028°41'0 0.0
2017-Oct-12 22:00N 44°20' E 028°41'0 0.0
2017-Oct-12 21:30N 44°20' E 028°41'0 0.0
2017-Oct-12 20:57N 44°20' E 028°41'0 0.0
2017-Oct-12 20:30N 44°20' E 028°41'0 0.0
2017-Oct-12 20:00N 44°20' E 028°41'0 0.0
2017-Oct-12 19:30N 44°20' E 028°41'0 0.0
2017-Oct-12 19:00N 44°20' E 028°41'0 0.0
2017-Oct-12 18:30N 44°20' E 028°41'0 0.0
2017-Oct-12 18:00N 44°20' E 028°41'0 0.0
2017-Oct-12 17:30N 44°20' E 028°41'0 0.0
2017-Oct-12 17:00N 44°20' E 028°41'0 0.0
2017-Oct-12 16:30N 44°20' E 028°41'0 0.0
2017-Oct-12 16:00N 44°20' E 028°41'0 0.0
2017-Oct-12 15:30N 44°20' E 028°41'0 0.0
2017-Oct-12 15:00N 44°20' E 028°41'0 0.0
2017-Oct-12 14:30N 44°20' E 028°41'0 0.0
2017-Oct-12 14:00N 44°20' E 028°41'0 0.0
2017-Oct-12 13:27N 44°20' E 028°41'0 0.0
2017-Oct-12 13:00N 44°20' E 028°41'0 0.0
2017-Oct-12 12:30N 44°20' E 028°41'0 0.0
2017-Oct-12 11:54N 44°20' E 028°41'0 0.0
2017-Oct-12 11:30N 44°20' E 028°41'0 0.0
2017-Oct-12 11:00N 44°20' E 028°41'0 0.0
2017-Oct-12 10:30N 44°20' E 028°41'0 0.0
2017-Oct-12 10:00N 44°20' E 028°41'0 0.0
2017-Oct-12 09:30N 44°20' E 028°41'0 0.0
2017-Oct-12 09:00N 44°20' E 028°41'0 0.0
2017-Oct-12 08:30N 44°20' E 028°41'0 0.0
2017-Oct-12 08:00N 44°20' E 028°41'0 0.0
2017-Oct-12 07:30N 44°20' E 028°41'0 0.0
2017-Oct-12 07:00N 44°20' E 028°41'0 0.0
2017-Oct-12 06:30N 44°20' E 028°41'0 0.0
2017-Oct-12 06:00N 44°20' E 028°41'0 0.0
2017-Oct-12 05:27N 44°20' E 028°41'0 0.0
2017-Oct-12 05:00N 44°20' E 028°41'0 0.0
2017-Oct-12 04:30N 44°20' E 028°41'0 0.0
2017-Oct-12 04:00N 44°20' E 028°41'0 0.0
2017-Oct-12 03:30N 44°20' E 028°41'0 0.0
2017-Oct-12 03:00N 44°20' E 028°41'0 0.0
2017-Oct-12 02:30N 44°20' E 028°41'0 0.0
2017-Oct-12 02:00N 44°20' E 028°41'0 0.0
2017-Oct-12 01:30N 44°20' E 028°41'0 0.0
2017-Oct-12 01:00N 44°20' E 028°41'0 0.0
2017-Oct-12 00:30N 44°20' E 028°41'0 0.0
2017-Oct-12 00:00N 44°20' E 028°41'0 0.0
2017-Oct-11 23:30N 44°20' E 028°41'0 0.0
2017-Oct-11 23:00N 44°20' E 028°41'0 0.0
2017-Oct-11 22:30N 44°20' E 028°41'0 0.0
2017-Oct-11 22:00N 44°20' E 028°41'0 0.0
2017-Oct-11 21:30N 44°20' E 028°41'0 0.0
2017-Oct-11 21:00N 44°20' E 028°41'0 0.0
2017-Oct-11 20:30N 44°20' E 028°41'0 0.0
2017-Oct-11 20:00N 44°20' E 028°41'0 0.0
2017-Oct-11 19:30N 44°20' E 028°41'0 0.0
2017-Oct-11 19:00N 44°20' E 028°41'0 0.0
2017-Oct-11 18:30N 44°20' E 028°41'0 0.0
2017-Oct-11 18:00N 44°20' E 028°41'0 0.0
2017-Oct-11 17:30N 44°20' E 028°41'0 0.0
2017-Oct-11 17:00N 44°20' E 028°41'0 0.0
2017-Oct-10 23:59N 44°20' E 028°41'0 0.0
2017-Oct-10 23:29N 44°20' E 028°41'0 0.0
2017-Oct-10 22:59N 44°20' E 028°41'0 0.0
2017-Oct-10 22:29N 44°20' E 028°41'0 0.0
2017-Oct-10 21:59N 44°20' E 028°41'0 0.0
2017-Oct-10 21:29N 44°20' E 028°41'0 0.0
2017-Oct-10 20:59N 44°20' E 028°41'0 0.0
2017-Oct-10 20:29N 44°20' E 028°41'0 0.0
2017-Oct-10 19:59N 44°20' E 028°41'0 0.0
2017-Oct-10 19:29N 44°20' E 028°41'0 0.0
2017-Oct-10 18:59N 44°20' E 028°41'0 0.0
2017-Oct-10 18:29N 44°20' E 028°41'0 0.0
2017-Oct-10 17:59N 44°20' E 028°41'0 0.0
2017-Oct-10 17:26N 44°20' E 028°41'0 0.0
2017-Oct-10 16:59N 44°20' E 028°41'0 0.0
2017-Oct-10 16:29N 44°20' E 028°41'0 0.0
2017-Oct-10 15:59N 44°20' E 028°41'0 0.0
2017-Oct-10 15:29N 44°20' E 028°41'0 0.0
2017-Oct-10 14:59N 44°20' E 028°41'4 4.0
2017-Oct-10 14:00N 44°18' E 028°46'1 1.2
2017-Oct-10 13:28N 44°18' E 028°47'0 0.0
2017-Oct-10 12:58N 44°18' E 028°47'0 0.0
2017-Oct-10 12:28N 44°18' E 028°47'0 0.0
2017-Oct-10 11:58N 44°18' E 028°47'0 0.0
2017-Oct-10 11:28N 44°18' E 028°47'0 0.0
2017-Oct-10 10:58N 44°18' E 028°47'0 0.0
2017-Oct-10 10:28N 44°18' E 028°47'0 0.0
2017-Oct-10 09:58N 44°18' E 028°47'0 0.0
2017-Oct-10 09:28N 44°18' E 028°47'0 0.0
2017-Oct-10 08:58N 44°18' E 028°47'0 0.0
2017-Oct-10 08:28N 44°18' E 028°47'0 0.4
2017-Oct-10 08:00N 44°18' E 028°46'4 8.5
2017-Oct-10 07:30N 44°20' E 028°41'0 0.0
2017-Oct-10 07:00N 44°20' E 028°41'0 0.0
2017-Oct-10 06:30N 44°20' E 028°41'0 0.0
2017-Oct-10 06:00N 44°20' E 028°41'0 0.0
2017-Oct-10 05:30N 44°20' E 028°41'0 0.0
2017-Oct-10 05:00N 44°20' E 028°41'0 0.0
2017-Oct-10 04:30N 44°20' E 028°41'0 0.0
2017-Oct-10 04:00N 44°20' E 028°41'0 0.0
2017-Oct-10 03:30N 44°20' E 028°41'0 0.0
2017-Oct-10 03:00N 44°20' E 028°41'0 0.0
2017-Oct-10 02:30N 44°20' E 028°41'0 0.0
2017-Oct-10 02:00N 44°20' E 028°41'0 0.0
2017-Oct-10 01:30N 44°20' E 028°41'0 0.0
2017-Oct-10 01:00N 44°20' E 028°41'0 0.0
2017-Oct-10 00:30N 44°20' E 028°41'0 0.0
2017-Oct-10 00:00N 44°20' E 028°41'0 0.0
2017-Oct-09 23:30N 44°20' E 028°41'0 0.0
2017-Oct-09 23:00N 44°20' E 028°41'0 0.0
2017-Oct-09 22:30N 44°20' E 028°41'0 0.0
2017-Oct-09 22:00N 44°20' E 028°41'0 0.0
2017-Oct-09 21:30N 44°20' E 028°41'0 0.0
2017-Oct-09 21:00N 44°20' E 028°41'0 0.0
2017-Oct-09 20:27N 44°20' E 028°41'0 0.0
2017-Oct-09 20:00N 44°20' E 028°41'0 0.0
2017-Oct-09 19:27N 44°20' E 028°41'0 0.0
2017-Oct-09 19:00N 44°20' E 028°41'0 0.0
2017-Oct-09 18:24N 44°20' E 028°41'0 0.0
2017-Oct-09 18:00N 44°20' E 028°41'0 0.0
2017-Oct-09 17:30N 44°20' E 028°41'0 0.0
2017-Oct-09 17:00N 44°20' E 028°41'0 0.0
2017-Oct-09 16:30N 44°20' E 028°41'0 0.0
2017-Oct-09 15:57N 44°20' E 028°41'0 0.0
2017-Oct-09 15:30N 44°20' E 028°41'0 0.0
2017-Oct-09 15:00N 44°20' E 028°41'0 0.0
2017-Oct-09 14:30N 44°20' E 028°41'0 0.0
2017-Oct-09 14:00N 44°20' E 028°41'0 0.0
2017-Oct-09 13:27N 44°20' E 028°41'0 0.0
2017-Oct-09 13:00N 44°20' E 028°41'0 0.0
2017-Oct-09 12:30N 44°20' E 028°41'0 0.0
2017-Oct-09 12:00N 44°20' E 028°41'0 0.0
2017-Oct-09 11:30N 44°20' E 028°41'0 0.0
2017-Oct-09 11:00N 44°20' E 028°41'0 0.0
2017-Oct-09 10:30N 44°20' E 028°41'0 0.0
2017-Oct-09 10:00N 44°20' E 028°41'0 0.0
2017-Oct-09 09:30N 44°20' E 028°41'0 0.0
2017-Oct-09 09:00N 44°20' E 028°41'0 0.0
2017-Oct-09 08:30N 44°20' E 028°41'0 0.0
2017-Oct-09 08:00N 44°20' E 028°41'0 0.0
2017-Oct-09 07:30N 44°20' E 028°41'0 0.0
2017-Oct-09 07:00N 44°20' E 028°41'0 0.0
2017-Oct-09 06:30N 44°20' E 028°41'0 0.0
2017-Oct-09 05:57N 44°20' E 028°41'0 0.0
2017-Oct-09 05:30N 44°20' E 028°41'0 0.0
2017-Oct-09 05:00N 44°20' E 028°41'0 0.0
2017-Oct-09 04:30N 44°20' E 028°41'0 0.0
2017-Oct-09 03:57N 44°20' E 028°41'0 0.0
2017-Oct-09 03:30N 44°20' E 028°41'0 0.0
2017-Oct-09 03:00N 44°20' E 028°41'0 0.0
2017-Oct-09 02:30N 44°20' E 028°41'0 0.0
2017-Oct-09 02:00N 44°20' E 028°41'0 0.0
2017-Oct-09 01:30N 44°20' E 028°41'0 0.0
2017-Oct-09 01:00N 44°20' E 028°41'0 0.0
2017-Oct-09 00:30N 44°20' E 028°41'0 0.0
2017-Oct-09 00:00N 44°20' E 028°41'0 0.0
2017-Oct-08 23:30N 44°20' E 028°41'0 0.0
2017-Oct-08 23:00N 44°20' E 028°41'0 0.0
2017-Oct-08 22:30N 44°20' E 028°41'0 0.0
2017-Oct-08 22:00N 44°20' E 028°41'0 0.0
2017-Oct-08 21:30N 44°20' E 028°41'0 0.0
2017-Oct-08 21:00N 44°20' E 028°41'0 0.0
2017-Oct-08 20:30N 44°20' E 028°41'0 0.0
2017-Oct-08 20:00N 44°20' E 028°41'0 0.0
2017-Oct-08 19:30N 44°20' E 028°41'0 0.0
2017-Oct-08 19:00N 44°20' E 028°41'  
Track history (hours):
 
Tides and Currents Weather Stations Pressure Air Temp Water Temp Dewpoint Dewpoint Depression Visibility Wind Speed Wind Dir Waves Ship Positions

Bucuresti

Last reported at 2017-Oct-18 18:30 UTC. Time now 2017-Oct-18 18:51 UTC.
Position N 44°20' E 028°41'.

Length 26 m; draft 3.2 m.

Type: Tug. MMSI: 264900303.

Date/timePositionNaut miles runAvg speedWind from/ knotsBaromVisibWave heightAir tempDewpointWater temp
2017-Oct-18 18:30N 44°20' E 028°41'0 0.0
2017-Oct-18 18:00N 44°20' E 028°41'0 0.0
2017-Oct-18 17:30N 44°20' E 028°41'0 0.0
2017-Oct-18 17:00N 44°20' E 028°41'0 0.0
2017-Oct-18 16:30N 44°20' E 028°41'0 0.0
2017-Oct-18 16:00N 44°20' E 028°41'0 0.0
2017-Oct-18 15:30N 44°20' E 028°41'0 0.0
2017-Oct-18 15:00N 44°20' E 028°41'0 0.1
2017-Oct-18 14:00N 44°20' E 028°41'5 8.3
2017-Oct-18 13:28N 44°18' E 028°47'0 0.1
2017-Oct-18 12:58N 44°18' E 028°47'0 0.2
2017-Oct-18 12:29N 44°18' E 028°47'0 0.2
2017-Oct-18 12:01N 44°18' E 028°47'0 0.2
2017-Oct-18 11:29N 44°18' E 028°47'1 2.6
2017-Oct-18 11:00N 44°18' E 028°45'3 6.3
2017-Oct-18 10:29N 44°20' E 028°41'3 7.1
2017-Oct-18 10:01N 44°18' E 028°45'1 2.5
2017-Oct-18 09:30N 44°18' E 028°47'0 0.0
2017-Oct-18 09:00N 44°18' E 028°47'0 0.0
2017-Oct-18 08:30N 44°18' E 028°47'0 0.0
2017-Oct-18 08:00N 44°18' E 028°47'0 0.0
2017-Oct-18 07:30N 44°18' E 028°47'3 5.9
2017-Oct-18 07:00N 44°19' E 028°43'2 3.7
2017-Oct-18 06:28N 44°20' E 028°41'0 0.0
2017-Oct-18 05:58N 44°20' E 028°41'0 0.0
2017-Oct-18 05:28N 44°20' E 028°41'0 0.0
2017-Oct-18 04:58N 44°20' E 028°41'0 0.0
2017-Oct-18 04:28N 44°20' E 028°41'0 0.0
2017-Oct-18 03:58N 44°20' E 028°41'0 0.0
2017-Oct-18 03:28N 44°20' E 028°41'0 0.0
2017-Oct-18 02:58N 44°20' E 028°41'0 0.0
2017-Oct-18 02:28N 44°20' E 028°41'0 0.0
2017-Oct-18 01:58N 44°20' E 028°41'0 0.0
2017-Oct-18 01:28N 44°20' E 028°41'0 0.0
2017-Oct-18 00:58N 44°20' E 028°41'0 0.0
2017-Oct-18 00:28N 44°20' E 028°41'0 0.0
2017-Oct-17 23:58N 44°20' E 028°41'0 0.0
2017-Oct-17 23:28N 44°20' E 028°41'0 0.0
2017-Oct-17 22:58N 44°20' E 028°41'0 0.0
2017-Oct-17 22:28N 44°20' E 028°41'0 0.0
2017-Oct-17 21:58N 44°20' E 028°41'0 0.0
2017-Oct-17 21:28N 44°20' E 028°41'0 0.0
2017-Oct-17 20:58N 44°20' E 028°41'0 0.0
2017-Oct-17 20:28N 44°20' E 028°41'0 0.0
2017-Oct-17 19:58N 44°20' E 028°41'0 0.0
2017-Oct-17 19:28N 44°20' E 028°41'0 0.0
2017-Oct-17 18:58N 44°20' E 028°41'0 0.0
2017-Oct-17 18:28N 44°20' E 028°41'0 0.0
2017-Oct-17 17:58N 44°20' E 028°41'0 0.0
2017-Oct-17 17:28N 44°20' E 028°41'0 0.0
2017-Oct-17 16:58N 44°20' E 028°41'0 0.0
2017-Oct-17 16:28N 44°20' E 028°41'0 0.0
2017-Oct-17 15:58N 44°20' E 028°41'0 0.0
2017-Oct-17 15:28N 44°20' E 028°41'0 0.0
2017-Oct-17 14:58N 44°20' E 028°41'1 2.9
2017-Oct-17 14:30N 44°19' E 028°42'4 7.0
2017-Oct-17 14:00N 44°18' E 028°47'0 0.4
2017-Oct-17 13:29N 44°18' E 028°47'0 0.0
2017-Oct-17 12:59N 44°18' E 028°47'0 0.0
2017-Oct-17 12:29N 44°18' E 028°47'0 0.0
2017-Oct-17 11:59N 44°18' E 028°47'0 0.0
2017-Oct-17 11:29N 44°18' E 028°47'0 0.0
2017-Oct-17 10:59N 44°18' E 028°47'0 0.0
2017-Oct-17 10:29N 44°18' E 028°47'0 0.0
2017-Oct-17 09:59N 44°18' E 028°47'0 0.2
2017-Oct-17 09:30N 44°18' E 028°47'0 0.3
2017-Oct-17 09:00N 44°18' E 028°47'0 0.0
2017-Oct-17 08:30N 44°18' E 028°47'0 0.0
2017-Oct-17 08:00N 44°18' E 028°47'3 6.9
2017-Oct-17 07:30N 44°19' E 028°42'2 3.1
2017-Oct-17 06:59N 44°20' E 028°41'0 0.0
2017-Oct-17 06:29N 44°20' E 028°41'0 0.0
2017-Oct-17 05:59N 44°20' E 028°41'0 0.0
2017-Oct-17 05:29N 44°20' E 028°41'0 0.0
2017-Oct-17 04:59N 44°20' E 028°41'0 0.0
2017-Oct-17 04:29N 44°20' E 028°41'0 0.0
2017-Oct-17 03:59N 44°20' E 028°41'0 0.0
2017-Oct-17 03:14N 44°20' E 028°41'0 0.0
2017-Oct-17 02:59N 44°20' E 028°41'0 0.0
2017-Oct-17 02:29N 44°20' E 028°41'0 0.0
2017-Oct-17 01:59N 44°20' E 028°41'0 0.0
2017-Oct-17 01:29N 44°20' E 028°41'0 0.0
2017-Oct-17 00:59N 44°20' E 028°41'0 0.0
2017-Oct-17 00:29N 44°20' E 028°41'0 0.0
2017-Oct-16 23:59N 44°20' E 028°41'0 0.0
2017-Oct-16 23:29N 44°20' E 028°41'0 0.0
2017-Oct-16 22:56N 44°20' E 028°41'0 0.0
2017-Oct-16 22:29N 44°20' E 028°41'0 0.0
2017-Oct-16 21:56N 44°20' E 028°41'0 0.0
2017-Oct-16 21:29N 44°20' E 028°41'0 0.0
2017-Oct-16 20:59N 44°20' E 028°41'0 0.0
2017-Oct-16 20:29N 44°20' E 028°41'0 0.0
2017-Oct-16 19:59N 44°20' E 028°41'0 0.0
2017-Oct-16 19:29N 44°20' E 028°41'0 0.0
2017-Oct-16 18:59N 44°20' E 028°41'0 0.0
2017-Oct-16 18:29N 44°20' E 028°41'0 0.0
2017-Oct-16 17:59N 44°20' E 028°41'0 0.0
2017-Oct-16 17:29N 44°20' E 028°41'0 0.0
2017-Oct-16 16:59N 44°20' E 028°41'0 0.0
2017-Oct-16 16:29N 44°20' E 028°41'0 0.0
2017-Oct-16 15:59N 44°20' E 028°41'0 0.0
2017-Oct-16 15:29N 44°20' E 028°41'0 0.0
2017-Oct-16 14:59N 44°20' E 028°41'0 0.0
2017-Oct-16 14:29N 44°20' E 028°41'0 0.3
2017-Oct-16 13:28N 44°20' E 028°41'1 2.6
2017-Oct-16 13:00N 44°19' E 028°42'1 2.2
2017-Oct-16 12:28N 44°20' E 028°41'0 0.0
2017-Oct-16 11:58N 44°20' E 028°41'0 0.0
2017-Oct-16 11:28N 44°20' E 028°41'0 0.0
2017-Oct-16 10:58N 44°20' E 028°41'0 0.0
2017-Oct-16 10:28N 44°20' E 028°41'0 0.0
2017-Oct-16 09:58N 44°20' E 028°41'0 0.0
2017-Oct-16 09:28N 44°20' E 028°41'0 0.0
2017-Oct-16 08:58N 44°20' E 028°41'0 0.0
2017-Oct-16 08:28N 44°20' E 028°41'0 0.0
2017-Oct-16 07:58N 44°20' E 028°41'0 0.0
2017-Oct-16 07:28N 44°20' E 028°41'0 0.0
2017-Oct-16 06:58N 44°20' E 028°41'0 0.0
2017-Oct-16 06:28N 44°20' E 028°41'0 0.0
2017-Oct-16 05:58N 44°20' E 028°41'0 0.0
2017-Oct-16 05:28N 44°20' E 028°41'0 0.0
2017-Oct-16 04:58N 44°20' E 028°41'0 0.0
2017-Oct-16 04:28N 44°20' E 028°41'0 0.0
2017-Oct-16 03:58N 44°20' E 028°41'0 0.0
2017-Oct-16 03:28N 44°20' E 028°41'0 0.0
2017-Oct-16 02:58N 44°20' E 028°41'0 0.0
2017-Oct-16 02:28N 44°20' E 028°41'0 0.0
2017-Oct-16 01:58N 44°20' E 028°41'0 0.0
2017-Oct-16 01:28N 44°20' E 028°41'0 0.0
2017-Oct-16 00:58N 44°20' E 028°41'0 0.0
2017-Oct-16 00:28N 44°20' E 028°41'0 0.0
2017-Oct-15 23:58N 44°20' E 028°41'0 0.0
2017-Oct-15 23:28N 44°20' E 028°41'0 0.0
2017-Oct-15 22:58N 44°20' E 028°41'0 0.0
2017-Oct-15 22:28N 44°20' E 028°41'0 0.0
2017-Oct-15 21:58N 44°20' E 028°41'0 0.0
2017-Oct-15 21:28N 44°20' E 028°41'0 0.0
2017-Oct-15 20:55N 44°20' E 028°41'0 0.0
2017-Oct-15 20:28N 44°20' E 028°41'0 0.0
2017-Oct-15 19:58N 44°20' E 028°41'0 0.0
2017-Oct-15 19:28N 44°20' E 028°41'0 0.0
2017-Oct-15 18:58N 44°20' E 028°41'0 0.0
2017-Oct-15 18:28N 44°20' E 028°41'0 0.0
2017-Oct-15 17:58N 44°20' E 028°41'0 0.0
2017-Oct-15 17:28N 44°20' E 028°41'0 0.0
2017-Oct-15 16:58N 44°20' E 028°41'0 0.0
2017-Oct-15 16:28N 44°20' E 028°41'0 0.0
2017-Oct-15 15:58N 44°20' E 028°41'0 0.0
2017-Oct-15 15:28N 44°20' E 028°41'0 0.0
2017-Oct-15 14:58N 44°20' E 028°41'0 0.0
2017-Oct-15 13:58N 44°20' E 028°41'0 1.1
2017-Oct-15 13:30N 44°20' E 028°41'4 8.7
2017-Oct-15 13:00N 44°18' E 028°47'0 1.0
2017-Oct-15 12:30N 44°18' E 028°46'4 8.4
2017-Oct-15 12:00N 44°20' E 028°41'0 0.0
2017-Oct-15 11:30N 44°20' E 028°41'0 0.0
2017-Oct-15 11:00N 44°20' E 028°41'0 0.0
2017-Oct-15 10:30N 44°20' E 028°41'0 0.0
2017-Oct-15 09:57N 44°20' E 028°41'0 0.0
2017-Oct-15 09:30N 44°20' E 028°41'0 0.0
2017-Oct-15 09:00N 44°20' E 028°41'0 0.0
2017-Oct-15 08:30N 44°20' E 028°41'0 0.0
2017-Oct-15 08:00N 44°20' E 028°41'2 4.4
2017-Oct-15 07:31N 44°18' E 028°43'3 5.1
2017-Oct-15 06:59N 44°18' E 028°46'0 0.1
2017-Oct-15 06:29N 44°18' E 028°46'0 0.3
2017-Oct-15 05:55N 44°18' E 028°47'2 4.8
2017-Oct-15 05:30N 44°18' E 028°44'3 5.6
2017-Oct-15 05:00N 44°20' E 028°41'0 0.0
2017-Oct-15 04:30N 44°20' E 028°41'0 0.0
2017-Oct-15 04:00N 44°20' E 028°41'0 0.0
2017-Oct-15 03:30N 44°20' E 028°41'0 0.0
2017-Oct-15 03:00N 44°20' E 028°41'0 0.0
2017-Oct-15 02:30N 44°20' E 028°41'0 0.0
2017-Oct-15 02:00N 44°20' E 028°41'0 0.0
2017-Oct-15 01:30N 44°20' E 028°41'0 0.0
2017-Oct-15 01:00N 44°20' E 028°41'0 0.0
2017-Oct-15 00:30N 44°20' E 028°41'0 0.0
2017-Oct-15 00:00N 44°20' E 028°41'0 0.0
2017-Oct-14 23:30N 44°20' E 028°41'0 0.0
2017-Oct-14 23:00N 44°20' E 028°41'0 0.0
2017-Oct-14 22:30N 44°20' E 028°41'0 0.0
2017-Oct-14 22:00N 44°20' E 028°41'0 0.0
2017-Oct-14 21:30N 44°20' E 028°41'0 0.0
2017-Oct-14 21:00N 44°20' E 028°41'0 0.0
2017-Oct-14 20:30N 44°20' E 028°41'0 0.0
2017-Oct-14 20:00N 44°20' E 028°41'0 0.0
2017-Oct-14 19:30N 44°20' E 028°41'0 0.0
2017-Oct-14 19:00N 44°20' E 028°41'0 0.0
2017-Oct-14 18:30N 44°20' E 028°41'0 0.0
2017-Oct-14 18:00N 44°20' E 028°41'0 0.0
2017-Oct-14 17:30N 44°20' E 028°41'0 0.0
2017-Oct-14 17:00N 44°20' E 028°41'0 0.0
2017-Oct-14 16:30N 44°20' E 028°41'0 0.0
2017-Oct-14 16:00N 44°20' E 028°41'0 0.0
2017-Oct-14 15:30N 44°20' E 028°41'0 0.0
2017-Oct-14 15:00N 44°20' E 028°41'0 0.0
2017-Oct-14 14:30N 44°20' E 028°41'0 0.0
2017-Oct-14 13:57N 44°20' E 028°41'0 0.0
2017-Oct-14 13:30N 44°20' E 028°41'0 0.0
2017-Oct-14 13:00N 44°20' E 028°41'0 0.0
2017-Oct-14 12:30N 44°20' E 028°41'0 0.0
2017-Oct-14 12:00N 44°20' E 028°41'0 0.0
2017-Oct-14 11:30N 44°20' E 028°41'1 2.4
2017-Oct-14 11:00N 44°19' E 028°42'4 6.8
2017-Oct-14 10:27N 44°18' E 028°47'4 8.2
2017-Oct-14 10:00N 44°19' E 028°42'1 2.8
2017-Oct-14 09:30N 44°20' E 028°41'0 0.8
2017-Oct-14 09:00N 44°20' E 028°41'0 0.7
2017-Oct-14 08:30N 44°20' E 028°41'1 1.7
2017-Oct-14 08:00N 44°19' E 028°41'0 0.5
2017-Oct-14 07:30N 44°20' E 028°41'1 1.3
2017-Oct-14 06:59N 44°20' E 028°41'0 0.0
2017-Oct-14 06:29N 44°20' E 028°41'0 0.0
2017-Oct-14 05:59N 44°20' E 028°41'0 0.0
2017-Oct-14 05:29N 44°20' E 028°41'0 0.0
2017-Oct-14 04:59N 44°20' E 028°41'0 0.0
2017-Oct-14 04:29N 44°20' E 028°41'0 0.0
2017-Oct-14 03:59N 44°20' E 028°41'0 0.0
2017-Oct-14 03:29N 44°20' E 028°41'0 0.0
2017-Oct-14 02:59N 44°20' E 028°41'0 0.0
2017-Oct-14 02:29N 44°20' E 028°41'0 0.0
2017-Oct-14 01:59N 44°20' E 028°41'0 0.0
2017-Oct-14 01:29N 44°20' E 028°41'0 0.0
2017-Oct-14 00:59N 44°20' E 028°41'0 0.0
2017-Oct-14 00:29N 44°20' E 028°41'0 0.0
2017-Oct-13 23:59N 44°20' E 028°41'0 0.0
2017-Oct-13 23:29N 44°20' E 028°41'0 0.0
2017-Oct-13 22:59N 44°20' E 028°41'0 0.0
2017-Oct-13 22:29N 44°20' E 028°41'0 0.0
2017-Oct-13 21:59N 44°20' E 028°41'0 0.0
2017-Oct-13 21:29N 44°20' E 028°41'0 0.0
2017-Oct-13 20:59N 44°20' E 028°41'0 0.0
2017-Oct-13 20:29N 44°20' E 028°41'0 0.0
2017-Oct-13 19:59N 44°20' E 028°41'0 0.0
2017-Oct-13 19:26N 44°20' E 028°41'0 0.0
2017-Oct-13 18:59N 44°20' E 028°41'0 0.0
2017-Oct-13 18:29N 44°20' E 028°41'0 0.0
2017-Oct-13 17:59N 44°20' E 028°41'0 0.0
2017-Oct-13 17:29N 44°20' E 028°41'0 0.0
2017-Oct-13 16:59N 44°20' E 028°41'0 0.0
2017-Oct-13 16:29N 44°20' E 028°41'0 0.0
2017-Oct-13 15:59N 44°20' E 028°41'0 0.0
2017-Oct-13 15:29N 44°20' E 028°41'0 0.0
2017-Oct-13 14:59N 44°20' E 028°41'0 0.0
2017-Oct-13 14:29N 44°20' E 028°41'0 0.0
2017-Oct-13 13:59N 44°20' E 028°41'0 0.0
2017-Oct-13 13:29N 44°20' E 028°41'3 6.4
2017-Oct-13 13:01N 44°18' E 028°44'0 0.6
2017-Oct-13 12:30N 44°18' E 028°45'3 6.6
2017-Oct-13 12:00N 44°20' E 028°41'0 0.0
2017-Oct-13 11:30N 44°20' E 028°41'0 0.0
2017-Oct-13 11:00N 44°20' E 028°41'0 0.0
2017-Oct-13 10:30N 44°20' E 028°41'0 0.0
2017-Oct-13 10:00N 44°20' E 028°41'0 0.6
2017-Oct-13 09:28N 44°21' E 028°41'0 0.0
2017-Oct-13 08:58N 44°21' E 028°41'0 0.7
2017-Oct-13 08:30N 44°20' E 028°41'0 0.0
2017-Oct-13 08:00N 44°20' E 028°41'5 9.1
2017-Oct-13 07:30N 44°18' E 028°47'0 0.1
2017-Oct-13 07:01N 44°18' E 028°46'0 0.1
2017-Oct-13 06:31N 44°18' E 028°47'0 0.4
2017-Oct-13 05:59N 44°18' E 028°47'3 7.3
2017-Oct-13 05:30N 44°19' E 028°42'2 3.1
2017-Oct-13 05:00N 44°20' E 028°41'0 0.0
2017-Oct-13 04:30N 44°20' E 028°41'0 0.0
2017-Oct-13 04:00N 44°20' E 028°41'0 0.0
2017-Oct-13 03:30N 44°20' E 028°41'0 0.0
2017-Oct-13 03:00N 44°20' E 028°41'0 0.0
2017-Oct-13 02:30N 44°20' E 028°41'0 0.0
2017-Oct-13 02:00N 44°20' E 028°41'0 0.0
2017-Oct-13 01:30N 44°20' E 028°41'0 0.0
2017-Oct-13 01:00N 44°20' E 028°41'0 0.0
2017-Oct-13 00:30N 44°20' E 028°41'0 0.0
2017-Oct-13 00:00N 44°20' E 028°41'0 0.0
2017-Oct-12 23:30N 44°20' E 028°41'0 0.0
2017-Oct-12 23:00N 44°20' E 028°41'0 0.0
2017-Oct-12 22:30N 44°20' E 028°41'0 0.0
2017-Oct-12 22:00N 44°20' E 028°41'0 0.0
2017-Oct-12 21:30N 44°20' E 028°41'0 0.0
2017-Oct-12 20:57N 44°20' E 028°41'0 0.0
2017-Oct-12 20:30N 44°20' E 028°41'0 0.0
2017-Oct-12 20:00N 44°20' E 028°41'0 0.0
2017-Oct-12 19:30N 44°20' E 028°41'0 0.0
2017-Oct-12 19:00N 44°20' E 028°41'0 0.0
2017-Oct-12 18:30N 44°20' E 028°41'0 0.0
2017-Oct-12 18:00N 44°20' E 028°41'0 0.0
2017-Oct-12 17:30N 44°20' E 028°41'0 0.0
2017-Oct-12 17:00N 44°20' E 028°41'0 0.0
2017-Oct-12 16:30N 44°20' E 028°41'0 0.0
2017-Oct-12 16:00N 44°20' E 028°41'0 0.0
2017-Oct-12 15:30N 44°20' E 028°41'0 0.0
2017-Oct-12 15:00N 44°20' E 028°41'0 0.0
2017-Oct-12 14:30N 44°20' E 028°41'0 0.0
2017-Oct-12 14:00N 44°20' E 028°41'0 0.0
2017-Oct-12 13:27N 44°20' E 028°41'0 0.0
2017-Oct-12 13:00N 44°20' E 028°41'0 0.0
2017-Oct-12 12:30N 44°20' E 028°41'0 0.0
2017-Oct-12 11:54N 44°20' E 028°41'0 0.0
2017-Oct-12 11:30N 44°20' E 028°41'0 0.0
2017-Oct-12 11:00N 44°20' E 028°41'0 0.0
2017-Oct-12 10:30N 44°20' E 028°41'0 0.0
2017-Oct-12 10:00N 44°20' E 028°41'0 0.0
2017-Oct-12 09:30N 44°20' E 028°41'0 0.0
2017-Oct-12 09:00N 44°20' E 028°41'0 0.0
2017-Oct-12 08:30N 44°20' E 028°41'0 0.0
2017-Oct-12 08:00N 44°20' E 028°41'0 0.0
2017-Oct-12 07:30N 44°20' E 028°41'0 0.0
2017-Oct-12 07:00N 44°20' E 028°41'0 0.0
2017-Oct-12 06:30N 44°20' E 028°41'0 0.0
2017-Oct-12 06:00N 44°20' E 028°41'0 0.0
2017-Oct-12 05:27N 44°20' E 028°41'0 0.0
2017-Oct-12 05:00N 44°20' E 028°41'0 0.0
2017-Oct-12 04:30N 44°20' E 028°41'0 0.0
2017-Oct-12 04:00N 44°20' E 028°41'0 0.0
2017-Oct-12 03:30N 44°20' E 028°41'0 0.0
2017-Oct-12 03:00N 44°20' E 028°41'0 0.0
2017-Oct-12 02:30N 44°20' E 028°41'0 0.0
2017-Oct-12 02:00N 44°20' E 028°41'0 0.0
2017-Oct-12 01:30N 44°20' E 028°41'0 0.0
2017-Oct-12 01:00N 44°20' E 028°41'0 0.0
2017-Oct-12 00:30N 44°20' E 028°41'0 0.0
2017-Oct-12 00:00N 44°20' E 028°41'0 0.0
2017-Oct-11 23:30N 44°20' E 028°41'0 0.0
2017-Oct-11 23:00N 44°20' E 028°41'0 0.0
2017-Oct-11 22:30N 44°20' E 028°41'0 0.0
2017-Oct-11 22:00N 44°20' E 028°41'0 0.0
2017-Oct-11 21:30N 44°20' E 028°41'0 0.0
2017-Oct-11 21:00N 44°20' E 028°41'0 0.0
2017-Oct-11 20:30N 44°20' E 028°41'0 0.0
2017-Oct-11 20:00N 44°20' E 028°41'0 0.0
2017-Oct-11 19:30N 44°20' E 028°41'0 0.0
2017-Oct-11 19:00N 44°20' E 028°41'0 0.0
2017-Oct-11 18:30N 44°20' E 028°41'0 0.0
2017-Oct-11 18:00N 44°20' E 028°41'0 0.0
2017-Oct-11 17:30N 44°20' E 028°41'0 0.0
2017-Oct-11 17:00N 44°20' E 028°41'0 0.0
2017-Oct-10 23:59N 44°20' E 028°41'0 0.0
2017-Oct-10 23:29N 44°20' E 028°41'0 0.0
2017-Oct-10 22:59N 44°20' E 028°41'0 0.0
2017-Oct-10 22:29N 44°20' E 028°41'0 0.0
2017-Oct-10 21:59N 44°20' E 028°41'0 0.0
2017-Oct-10 21:29N 44°20' E 028°41'0 0.0
2017-Oct-10 20:59N 44°20' E 028°41'0 0.0
2017-Oct-10 20:29N 44°20' E 028°41'0 0.0
2017-Oct-10 19:59N 44°20' E 028°41'0 0.0
2017-Oct-10 19:29N 44°20' E 028°41'0 0.0
2017-Oct-10 18:59N 44°20' E 028°41'0 0.0
2017-Oct-10 18:29N 44°20' E 028°41'0 0.0
2017-Oct-10 17:59N 44°20' E 028°41'0 0.0
2017-Oct-10 17:26N 44°20' E 028°41'0 0.0
2017-Oct-10 16:59N 44°20' E 028°41'0 0.0
2017-Oct-10 16:29N 44°20' E 028°41'0 0.0
2017-Oct-10 15:59N 44°20' E 028°41'0 0.0
2017-Oct-10 15:29N 44°20' E 028°41'0 0.0
2017-Oct-10 14:59N 44°20' E 028°41'4 4.0
2017-Oct-10 14:00N 44°18' E 028°46'1 1.2
2017-Oct-10 13:28N 44°18' E 028°47'0 0.0
2017-Oct-10 12:58N 44°18' E 028°47'0 0.0
2017-Oct-10 12:28N 44°18' E 028°47'0 0.0
2017-Oct-10 11:58N 44°18' E 028°47'0 0.0
2017-Oct-10 11:28N 44°18' E 028°47'0 0.0
2017-Oct-10 10:58N 44°18' E 028°47'0 0.0
2017-Oct-10 10:28N 44°18' E 028°47'0 0.0
2017-Oct-10 09:58N 44°18' E 028°47'0 0.0
2017-Oct-10 09:28N 44°18' E 028°47'0 0.0
2017-Oct-10 08:58N 44°18' E 028°47'0 0.0
2017-Oct-10 08:28N 44°18' E 028°47'0 0.4
2017-Oct-10 08:00N 44°18' E 028°46'4 8.5
2017-Oct-10 07:30N 44°20' E 028°41'0 0.0
2017-Oct-10 07:00N 44°20' E 028°41'0 0.0
2017-Oct-10 06:30N 44°20' E 028°41'0 0.0
2017-Oct-10 06:00N 44°20' E 028°41'0 0.0
2017-Oct-10 05:30N 44°20' E 028°41'0 0.0
2017-Oct-10 05:00N 44°20' E 028°41'0 0.0
2017-Oct-10 04:30N 44°20' E 028°41'0 0.0
2017-Oct-10 04:00N 44°20' E 028°41'0 0.0
2017-Oct-10 03:30N 44°20' E 028°41'0 0.0
2017-Oct-10 03:00N 44°20' E 028°41'0 0.0
2017-Oct-10 02:30N 44°20' E 028°41'0 0.0
2017-Oct-10 02:00N 44°20' E 028°41'0 0.0
2017-Oct-10 01:30N 44°20' E 028°41'0 0.0
2017-Oct-10 01:00N 44°20' E 028°41'0 0.0
2017-Oct-10 00:30N 44°20' E 028°41'0 0.0
2017-Oct-10 00:00N 44°20' E 028°41'0 0.0
2017-Oct-09 23:30N 44°20' E 028°41'0 0.0
2017-Oct-09 23:00N 44°20' E 028°41'0 0.0
2017-Oct-09 22:30N 44°20' E 028°41'0 0.0
2017-Oct-09 22:00N 44°20' E 028°41'0 0.0
2017-Oct-09 21:30N 44°20' E 028°41'0 0.0
2017-Oct-09 21:00N 44°20' E 028°41'0 0.0
2017-Oct-09 20:27N 44°20' E 028°41'0 0.0
2017-Oct-09 20:00N 44°20' E 028°41'0 0.0
2017-Oct-09 19:27N 44°20' E 028°41'0 0.0
2017-Oct-09 19:00N 44°20' E 028°41'0 0.0
2017-Oct-09 18:24N 44°20' E 028°41'0 0.0
2017-Oct-09 18:00N 44°20' E 028°41'0 0.0
2017-Oct-09 17:30N 44°20' E 028°41'0 0.0
2017-Oct-09 17:00N 44°20' E 028°41'0 0.0
2017-Oct-09 16:30N 44°20' E 028°41'0 0.0
2017-Oct-09 15:57N 44°20' E 028°41'0 0.0
2017-Oct-09 15:30N 44°20' E 028°41'0 0.0
2017-Oct-09 15:00N 44°20' E 028°41'0 0.0
2017-Oct-09 14:30N 44°20' E 028°41'0 0.0
2017-Oct-09 14:00N 44°20' E 028°41'0 0.0
2017-Oct-09 13:27N 44°20' E 028°41'0 0.0
2017-Oct-09 13:00N 44°20' E 028°41'0 0.0
2017-Oct-09 12:30N 44°20' E 028°41'0 0.0
2017-Oct-09 12:00N 44°20' E 028°41'0 0.0
2017-Oct-09 11:30N 44°20' E 028°41'0 0.0
2017-Oct-09 11:00N 44°20' E 028°41'0 0.0
2017-Oct-09 10:30N 44°20' E 028°41'0 0.0
2017-Oct-09 10:00N 44°20' E 028°41'0 0.0
2017-Oct-09 09:30N 44°20' E 028°41'0 0.0
2017-Oct-09 09:00N 44°20' E 028°41'0 0.0
2017-Oct-09 08:30N 44°20' E 028°41'0 0.0
2017-Oct-09 08:00N 44°20' E 028°41'0 0.0
2017-Oct-09 07:30N 44°20' E 028°41'0 0.0
2017-Oct-09 07:00N 44°20' E 028°41'0 0.0
2017-Oct-09 06:30N 44°20' E 028°41'0 0.0
2017-Oct-09 05:57N 44°20' E 028°41'0 0.0
2017-Oct-09 05:30N 44°20' E 028°41'0 0.0
2017-Oct-09 05:00N 44°20' E 028°41'0 0.0
2017-Oct-09 04:30N 44°20' E 028°41'0 0.0
2017-Oct-09 03:57N 44°20' E 028°41'0 0.0
2017-Oct-09 03:30N 44°20' E 028°41'0 0.0
2017-Oct-09 03:00N 44°20' E 028°41'0 0.0
2017-Oct-09 02:30N 44°20' E 028°41'0 0.0
2017-Oct-09 02:00N 44°20' E 028°41'0 0.0
2017-Oct-09 01:30N 44°20' E 028°41'0 0.0
2017-Oct-09 01:00N 44°20' E 028°41'0 0.0
2017-Oct-09 00:30N 44°20' E 028°41'0 0.0
2017-Oct-09 00:00N 44°20' E 028°41'0 0.0
2017-Oct-08 23:30N 44°20' E 028°41'0 0.0
2017-Oct-08 23:00N 44°20' E 028°41'0 0.0
2017-Oct-08 22:30N 44°20' E 028°41'0 0.0
2017-Oct-08 22:00N 44°20' E 028°41'0 0.0
2017-Oct-08 21:30N 44°20' E 028°41'0 0.0
2017-Oct-08 21:00N 44°20' E 028°41'0 0.0
2017-Oct-08 20:30N 44°20' E 028°41'0 0.0
2017-Oct-08 20:00N 44°20' E 028°41'0 0.0
2017-Oct-08 19:30N 44°20' E 028°41'0 0.0
2017-Oct-08 19:00N 44°20' E 028°41'  

Dump ship's entire track history